sensor_id;sensor_type;location;lat;lon;timestamp;P1;durP1;ratioP1;P2;durP2;ratioP2
9657;SDS011;4867;48.112;11.622;2023-05-28T00:01:10;14.07;;;9.87;;
9657;SDS011;4867;48.112;11.622;2023-05-28T00:03:37;12.07;;;10.03;;
9657;SDS011;4867;48.112;11.622;2023-05-28T00:06:05;10.93;;;9.20;;
9657;SDS011;4867;48.112;11.622;2023-05-28T00:08:33;14.23;;;10.00;;
9657;SDS011;4867;48.112;11.622;2023-05-28T00:11:00;13.03;;;9.73;;
9657;SDS011;4867;48.112;11.622;2023-05-28T00:13:28;11.73;;;9.23;;
9657;SDS011;4867;48.112;11.622;2023-05-28T00:15:57;12.07;;;9.40;;
9657;SDS011;4867;48.112;11.622;2023-05-28T00:18:24;11.87;;;9.03;;
9657;SDS011;4867;48.112;11.622;2023-05-28T00:20:51;11.07;;;9.33;;
9657;SDS011;4867;48.112;11.622;2023-05-28T00:23:19;11.60;;;9.00;;
9657;SDS011;4867;48.112;11.622;2023-05-28T00:25:46;11.83;;;8.80;;
9657;SDS011;4867;48.112;11.622;2023-05-28T00:28:14;12.67;;;9.30;;
9657;SDS011;4867;48.112;11.622;2023-05-28T00:30:41;14.87;;;9.20;;
9657;SDS011;4867;48.112;11.622;2023-05-28T00:33:08;12.10;;;8.87;;
9657;SDS011;4867;48.112;11.622;2023-05-28T00:35:36;11.27;;;8.40;;
9657;SDS011;4867;48.112;11.622;2023-05-28T00:38:03;13.60;;;8.87;;
9657;SDS011;4867;48.112;11.622;2023-05-28T00:40:31;12.60;;;9.23;;
9657;SDS011;4867;48.112;11.622;2023-05-28T00:42:58;11.83;;;9.07;;
9657;SDS011;4867;48.112;11.622;2023-05-28T00:45:25;12.30;;;8.27;;
9657;SDS011;4867;48.112;11.622;2023-05-28T00:47:53;12.43;;;8.70;;
9657;SDS011;4867;48.112;11.622;2023-05-28T00:50:21;11.50;;;8.37;;
9657;SDS011;4867;48.112;11.622;2023-05-28T00:52:49;11.33;;;8.37;;
9657;SDS011;4867;48.112;11.622;2023-05-28T00:55:18;11.40;;;8.33;;
9657;SDS011;4867;48.112;11.622;2023-05-28T00:57:47;13.57;;;8.70;;
9657;SDS011;4867;48.112;11.622;2023-05-28T01:00:15;10.57;;;8.23;;
9657;SDS011;4867;48.112;11.622;2023-05-28T01:02:43;12.30;;;8.23;;
9657;SDS011;4867;48.112;11.622;2023-05-28T01:05:10;11.77;;;8.37;;
9657;SDS011;4867;48.112;11.622;2023-05-28T01:07:38;10.80;;;8.47;;
9657;SDS011;4867;48.112;11.622;2023-05-28T01:10:06;10.50;;;7.70;;
9657;SDS011;4867;48.112;11.622;2023-05-28T01:12:35;11.90;;;8.03;;
9657;SDS011;4867;48.112;11.622;2023-05-28T01:15:05;10.83;;;7.60;;
9657;SDS011;4867;48.112;11.622;2023-05-28T01:17:33;14.00;;;8.70;;
9657;SDS011;4867;48.112;11.622;2023-05-28T01:20:02;12.30;;;7.37;;
9657;SDS011;4867;48.112;11.622;2023-05-28T01:22:33;10.63;;;8.07;;
9657;SDS011;4867;48.112;11.622;2023-05-28T01:25:24;11.67;;;8.40;;
9657;SDS011;4867;48.112;11.622;2023-05-28T01:27:51;9.93;;;7.87;;
9657;SDS011;4867;48.112;11.622;2023-05-28T01:30:21;14.03;;;8.43;;
9657;SDS011;4867;48.112;11.622;2023-05-28T01:32:48;9.77;;;7.67;;
9657;SDS011;4867;48.112;11.622;2023-05-28T01:35:17;13.37;;;8.63;;
9657;SDS011;4867;48.112;11.622;2023-05-28T01:37:46;11.60;;;8.27;;
9657;SDS011;4867;48.112;11.622;2023-05-28T01:40:18;13.20;;;8.30;;
9657;SDS011;4867;48.112;11.622;2023-05-28T01:42:47;11.33;;;8.60;;
9657;SDS011;4867;48.112;11.622;2023-05-28T01:45:16;15.03;;;8.80;;
9657;SDS011;4867;48.112;11.622;2023-05-28T01:47:45;11.63;;;8.13;;
9657;SDS011;4867;48.112;11.622;2023-05-28T01:50:13;9.83;;;7.60;;
9657;SDS011;4867;48.112;11.622;2023-05-28T01:52:42;10.60;;;7.57;;
9657;SDS011;4867;48.112;11.622;2023-05-28T01:55:11;15.43;;;8.57;;
9657;SDS011;4867;48.112;11.622;2023-05-28T01:57:40;10.57;;;8.20;;
9657;SDS011;4867;48.112;11.622;2023-05-28T02:00:07;12.40;;;7.67;;
9657;SDS011;4867;48.112;11.622;2023-05-28T02:02:42;10.57;;;7.87;;
9657;SDS011;4867;48.112;11.622;2023-05-28T02:05:13;10.77;;;7.77;;
9657;SDS011;4867;48.112;11.622;2023-05-28T02:07:41;11.10;;;7.93;;
9657;SDS011;4867;48.112;11.622;2023-05-28T02:10:08;11.80;;;7.90;;
9657;SDS011;4867;48.112;11.622;2023-05-28T02:12:36;11.33;;;7.83;;
9657;SDS011;4867;48.112;11.622;2023-05-28T02:15:03;11.67;;;7.87;;
9657;SDS011;4867;48.112;11.622;2023-05-28T02:17:32;12.43;;;8.80;;
9657;SDS011;4867;48.112;11.622;2023-05-28T02:20:01;12.17;;;8.03;;
9657;SDS011;4867;48.112;11.622;2023-05-28T02:22:29;12.23;;;8.63;;
9657;SDS011;4867;48.112;11.622;2023-05-28T02:24:56;12.40;;;8.77;;
9657;SDS011;4867;48.112;11.622;2023-05-28T02:27:23;10.23;;;7.70;;
9657;SDS011;4867;48.112;11.622;2023-05-28T02:29:50;10.43;;;7.40;;
9657;SDS011;4867;48.112;11.622;2023-05-28T02:32:18;11.80;;;7.73;;
9657;SDS011;4867;48.112;11.622;2023-05-28T02:34:45;12.63;;;8.27;;
9657;SDS011;4867;48.112;11.622;2023-05-28T02:37:13;13.73;;;8.00;;
9657;SDS011;4867;48.112;11.622;2023-05-28T02:39:40;11.67;;;8.07;;
9657;SDS011;4867;48.112;11.622;2023-05-28T02:42:08;9.63;;;7.60;;
9657;SDS011;4867;48.112;11.622;2023-05-28T02:44:36;13.43;;;8.37;;
9657;SDS011;4867;48.112;11.622;2023-05-28T02:47:04;13.93;;;8.43;;
9657;SDS011;4867;48.112;11.622;2023-05-28T02:49:31;14.30;;;8.60;;
9657;SDS011;4867;48.112;11.622;2023-05-28T02:51:59;12.37;;;8.67;;
9657;SDS011;4867;48.112;11.622;2023-05-28T02:54:30;11.33;;;8.00;;
9657;SDS011;4867;48.112;11.622;2023-05-28T02:56:57;12.33;;;8.10;;
9657;SDS011;4867;48.112;11.622;2023-05-28T02:59:25;13.23;;;8.00;;
9657;SDS011;4867;48.112;11.622;2023-05-28T03:01:53;11.60;;;8.00;;
9657;SDS011;4867;48.112;11.622;2023-05-28T03:04:20;9.97;;;7.73;;
9657;SDS011;4867;48.112;11.622;2023-05-28T03:06:49;13.10;;;8.00;;
9657;SDS011;4867;48.112;11.622;2023-05-28T03:09:17;10.73;;;8.07;;
9657;SDS011;4867;48.112;11.622;2023-05-28T03:11:44;13.13;;;8.27;;
9657;SDS011;4867;48.112;11.622;2023-05-28T03:14:12;12.13;;;8.40;;
9657;SDS011;4867;48.112;11.622;2023-05-28T03:16:41;12.07;;;8.23;;
9657;SDS011;4867;48.112;11.622;2023-05-28T03:19:19;12.37;;;8.20;;
9657;SDS011;4867;48.112;11.622;2023-05-28T03:21:47;11.27;;;7.87;;
9657;SDS011;4867;48.112;11.622;2023-05-28T03:24:15;12.27;;;7.90;;
9657;SDS011;4867;48.112;11.622;2023-05-28T03:26:46;12.20;;;8.20;;
9657;SDS011;4867;48.112;11.622;2023-05-28T03:29:19;13.73;;;8.33;;
9657;SDS011;4867;48.112;11.622;2023-05-28T03:31:53;9.97;;;7.97;;
9657;SDS011;4867;48.112;11.622;2023-05-28T03:34:21;11.20;;;8.13;;
9657;SDS011;4867;48.112;11.622;2023-05-28T03:36:50;9.77;;;7.33;;
9657;SDS011;4867;48.112;11.622;2023-05-28T03:39:17;10.10;;;7.73;;
9657;SDS011;4867;48.112;11.622;2023-05-28T03:41:47;10.70;;;8.03;;
9657;SDS011;4867;48.112;11.622;2023-05-28T03:44:17;11.03;;;7.90;;
9657;SDS011;4867;48.112;11.622;2023-05-28T03:46:47;12.63;;;7.53;;
9657;SDS011;4867;48.112;11.622;2023-05-28T03:49:16;11.90;;;7.63;;
9657;SDS011;4867;48.112;11.622;2023-05-28T03:51:43;9.20;;;7.37;;
9657;SDS011;4867;48.112;11.622;2023-05-28T03:54:11;10.97;;;7.93;;
9657;SDS011;4867;48.112;11.622;2023-05-28T03:56:38;12.30;;;7.80;;
9657;SDS011;4867;48.112;11.622;2023-05-28T03:59:07;9.70;;;7.43;;
9657;SDS011;4867;48.112;11.622;2023-05-28T04:01:34;10.00;;;6.87;;
9657;SDS011;4867;48.112;11.622;2023-05-28T04:04:04;10.50;;;7.47;;
9657;SDS011;4867;48.112;11.622;2023-05-28T04:06:32;8.60;;;7.30;;
9657;SDS011;4867;48.112;11.622;2023-05-28T04:09:00;9.87;;;7.50;;
9657;SDS011;4867;48.112;11.622;2023-05-28T04:11:27;11.10;;;7.47;;
9657;SDS011;4867;48.112;11.622;2023-05-28T04:13:57;7.97;;;7.17;;
9657;SDS011;4867;48.112;11.622;2023-05-28T04:16:24;8.83;;;7.07;;
9657;SDS011;4867;48.112;11.622;2023-05-28T04:18:52;8.07;;;7.27;;
9657;SDS011;4867;48.112;11.622;2023-05-28T04:21:20;7.67;;;6.90;;
9657;SDS011;4867;48.112;11.622;2023-05-28T04:23:48;8.20;;;6.83;;
9657;SDS011;4867;48.112;11.622;2023-05-28T04:26:16;7.37;;;6.47;;
9657;SDS011;4867;48.112;11.622;2023-05-28T04:28:43;9.03;;;7.07;;
9657;SDS011;4867;48.112;11.622;2023-05-28T04:31:13;9.13;;;6.77;;
9657;SDS011;4867;48.112;11.622;2023-05-28T04:33:41;8.40;;;6.90;;
9657;SDS011;4867;48.112;11.622;2023-05-28T04:36:13;8.63;;;6.63;;
9657;SDS011;4867;48.112;11.622;2023-05-28T04:38:40;9.73;;;6.20;;
9657;SDS011;4867;48.112;11.622;2023-05-28T04:41:08;7.77;;;6.20;;
9657;SDS011;4867;48.112;11.622;2023-05-28T04:43:40;8.17;;;6.60;;
9657;SDS011;4867;48.112;11.622;2023-05-28T04:46:08;8.17;;;6.90;;
9657;SDS011;4867;48.112;11.622;2023-05-28T04:48:36;7.13;;;6.33;;
9657;SDS011;4867;48.112;11.622;2023-05-28T04:51:04;9.57;;;7.07;;
9657;SDS011;4867;48.112;11.622;2023-05-28T04:53:35;10.20;;;7.30;;
9657;SDS011;4867;48.112;11.622;2023-05-28T04:56:03;8.63;;;6.80;;
9657;SDS011;4867;48.112;11.622;2023-05-28T04:58:32;12.97;;;6.90;;
9657;SDS011;4867;48.112;11.622;2023-05-28T05:00:59;8.10;;;7.07;;
9657;SDS011;4867;48.112;11.622;2023-05-28T05:03:28;11.37;;;6.47;;
9657;SDS011;4867;48.112;11.622;2023-05-28T05:05:57;12.53;;;6.73;;
9657;SDS011;4867;48.112;11.622;2023-05-28T05:08:25;8.30;;;6.20;;
9657;SDS011;4867;48.112;11.622;2023-05-28T05:10:52;10.77;;;6.03;;
9657;SDS011;4867;48.112;11.622;2023-05-28T05:13:19;9.80;;;6.07;;
9657;SDS011;4867;48.112;11.622;2023-05-28T05:15:47;11.77;;;6.67;;
9657;SDS011;4867;48.112;11.622;2023-05-28T05:18:14;10.90;;;6.27;;
9657;SDS011;4867;48.112;11.622;2023-05-28T05:20:42;11.70;;;7.20;;
9657;SDS011;4867;48.112;11.622;2023-05-28T05:23:09;10.57;;;6.70;;
9657;SDS011;4867;48.112;11.622;2023-05-28T05:25:38;11.13;;;6.40;;
9657;SDS011;4867;48.112;11.622;2023-05-28T05:28:06;9.97;;;6.23;;
9657;SDS011;4867;48.112;11.622;2023-05-28T05:30:33;12.03;;;6.13;;
9657;SDS011;4867;48.112;11.622;2023-05-28T05:33:01;10.43;;;6.07;;
9657;SDS011;4867;48.112;11.622;2023-05-28T05:35:32;9.90;;;6.07;;
9657;SDS011;4867;48.112;11.622;2023-05-28T05:38:14;9.83;;;6.27;;
9657;SDS011;4867;48.112;11.622;2023-05-28T05:41:00;9.87;;;6.07;;
9657;SDS011;4867;48.112;11.622;2023-05-28T05:43:49;11.20;;;6.17;;
9657;SDS011;4867;48.112;11.622;2023-05-28T05:46:16;11.13;;;5.87;;
9657;SDS011;4867;48.112;11.622;2023-05-28T05:48:44;10.43;;;6.10;;
9657;SDS011;4867;48.112;11.622;2023-05-28T05:51:12;11.07;;;6.07;;
9657;SDS011;4867;48.112;11.622;2023-05-28T05:53:44;9.70;;;5.50;;
9657;SDS011;4867;48.112;11.622;2023-05-28T05:56:12;9.97;;;6.30;;
9657;SDS011;4867;48.112;11.622;2023-05-28T05:58:39;9.00;;;5.80;;
9657;SDS011;4867;48.112;11.622;2023-05-28T06:01:08;9.87;;;6.00;;
9657;SDS011;4867;48.112;11.622;2023-05-28T06:03:37;9.70;;;6.00;;
9657;SDS011;4867;48.112;11.622;2023-05-28T06:06:25;12.07;;;5.90;;
9657;SDS011;4867;48.112;11.622;2023-05-28T06:09:11;11.33;;;5.67;;
9657;SDS011;4867;48.112;11.622;2023-05-28T06:11:45;10.70;;;5.83;;
9657;SDS011;4867;48.112;11.622;2023-05-28T06:14:12;9.23;;;5.83;;
9657;SDS011;4867;48.112;11.622;2023-05-28T06:16:39;11.73;;;6.50;;
9657;SDS011;4867;48.112;11.622;2023-05-28T06:19:07;9.27;;;5.53;;
9657;SDS011;4867;48.112;11.622;2023-05-28T06:21:35;8.93;;;5.57;;
9657;SDS011;4867;48.112;11.622;2023-05-28T06:24:04;10.00;;;6.17;;
9657;SDS011;4867;48.112;11.622;2023-05-28T06:26:34;10.07;;;6.07;;
9657;SDS011;4867;48.112;11.622;2023-05-28T06:29:01;8.80;;;5.70;;
9657;SDS011;4867;48.112;11.622;2023-05-28T06:31:30;9.13;;;5.70;;
9657;SDS011;4867;48.112;11.622;2023-05-28T06:33:58;10.10;;;5.53;;
9657;SDS011;4867;48.112;11.622;2023-05-28T06:36:26;11.13;;;6.30;;
9657;SDS011;4867;48.112;11.622;2023-05-28T06:38:53;11.50;;;5.97;;
9657;SDS011;4867;48.112;11.622;2023-05-28T06:41:22;9.43;;;5.77;;
9657;SDS011;4867;48.112;11.622;2023-05-28T06:43:52;9.77;;;5.77;;
9657;SDS011;4867;48.112;11.622;2023-05-28T06:46:29;11.47;;;6.47;;
9657;SDS011;4867;48.112;11.622;2023-05-28T06:48:57;13.90;;;7.07;;
9657;SDS011;4867;48.112;11.622;2023-05-28T06:51:25;9.07;;;5.47;;
9657;SDS011;4867;48.112;11.622;2023-05-28T06:53:52;12.87;;;5.63;;
9657;SDS011;4867;48.112;11.622;2023-05-28T06:56:24;10.23;;;6.00;;
9657;SDS011;4867;48.112;11.622;2023-05-28T06:59:29;9.53;;;6.33;;
9657;SDS011;4867;48.112;11.622;2023-05-28T07:02:26;12.57;;;6.30;;
9657;SDS011;4867;48.112;11.622;2023-05-28T07:05:01;8.40;;;5.97;;
9657;SDS011;4867;48.112;11.622;2023-05-28T07:07:33;10.60;;;6.67;;
9657;SDS011;4867;48.112;11.622;2023-05-28T07:10:00;10.47;;;5.90;;
9657;SDS011;4867;48.112;11.622;2023-05-28T07:12:30;9.17;;;5.77;;
9657;SDS011;4867;48.112;11.622;2023-05-28T07:14:58;10.23;;;5.93;;
9657;SDS011;4867;48.112;11.622;2023-05-28T07:17:28;7.87;;;5.63;;
9657;SDS011;4867;48.112;11.622;2023-05-28T07:19:55;9.50;;;5.77;;
9657;SDS011;4867;48.112;11.622;2023-05-28T07:22:41;7.37;;;5.40;;
9657;SDS011;4867;48.112;11.622;2023-05-28T07:25:09;10.60;;;5.83;;
9657;SDS011;4867;48.112;11.622;2023-05-28T07:27:37;10.70;;;5.90;;
9657;SDS011;4867;48.112;11.622;2023-05-28T07:30:05;11.97;;;5.73;;
9657;SDS011;4867;48.112;11.622;2023-05-28T07:32:33;11.27;;;5.80;;
9657;SDS011;4867;48.112;11.622;2023-05-28T07:35:02;9.53;;;5.30;;
9657;SDS011;4867;48.112;11.622;2023-05-28T07:37:29;9.67;;;5.77;;
9657;SDS011;4867;48.112;11.622;2023-05-28T07:39:57;11.07;;;5.20;;
9657;SDS011;4867;48.112;11.622;2023-05-28T07:42:24;10.43;;;5.03;;
9657;SDS011;4867;48.112;11.622;2023-05-28T07:45:00;9.87;;;5.73;;
9657;SDS011;4867;48.112;11.622;2023-05-28T07:47:28;10.07;;;5.57;;
9657;SDS011;4867;48.112;11.622;2023-05-28T07:50:07;8.87;;;5.70;;
9657;SDS011;4867;48.112;11.622;2023-05-28T07:52:52;9.33;;;5.50;;
9657;SDS011;4867;48.112;11.622;2023-05-28T07:55:20;10.00;;;5.50;;
9657;SDS011;4867;48.112;11.622;2023-05-28T07:57:48;9.60;;;5.70;;
9657;SDS011;4867;48.112;11.622;2023-05-28T08:00:17;7.57;;;4.97;;
9657;SDS011;4867;48.112;11.622;2023-05-28T08:02:53;9.00;;;5.33;;
9657;SDS011;4867;48.112;11.622;2023-05-28T08:05:31;8.70;;;5.20;;
9657;SDS011;4867;48.112;11.622;2023-05-28T08:07:59;9.70;;;5.43;;
9657;SDS011;4867;48.112;11.622;2023-05-28T08:10:26;6.80;;;4.97;;
9657;SDS011;4867;48.112;11.622;2023-05-28T08:12:53;7.57;;;4.87;;
9657;SDS011;4867;48.112;11.622;2023-05-28T08:15:22;9.93;;;5.70;;
9657;SDS011;4867;48.112;11.622;2023-05-28T08:17:52;7.17;;;4.80;;
9657;SDS011;4867;48.112;11.622;2023-05-28T08:20:22;9.03;;;5.43;;
9657;SDS011;4867;48.112;11.622;2023-05-28T08:23:09;7.53;;;5.07;;
9657;SDS011;4867;48.112;11.622;2023-05-28T08:25:37;7.80;;;4.87;;
9657;SDS011;4867;48.112;11.622;2023-05-28T08:28:09;8.63;;;5.20;;
9657;SDS011;4867;48.112;11.622;2023-05-28T08:30:37;9.33;;;5.07;;
9657;SDS011;4867;48.112;11.622;2023-05-28T08:33:14;10.23;;;5.10;;
9657;SDS011;4867;48.112;11.622;2023-05-28T08:35:42;10.47;;;5.10;;
9657;SDS011;4867;48.112;11.622;2023-05-28T08:38:09;8.47;;;5.17;;
9657;SDS011;4867;48.112;11.622;2023-05-28T08:40:43;10.53;;;5.17;;
9657;SDS011;4867;48.112;11.622;2023-05-28T08:43:15;9.63;;;5.03;;
9657;SDS011;4867;48.112;11.622;2023-05-28T08:45:42;9.07;;;4.47;;
9657;SDS011;4867;48.112;11.622;2023-05-28T08:48:11;9.20;;;4.90;;
9657;SDS011;4867;48.112;11.622;2023-05-28T08:50:41;9.17;;;5.10;;
9657;SDS011;4867;48.112;11.622;2023-05-28T08:53:20;9.90;;;5.10;;
9657;SDS011;4867;48.112;11.622;2023-05-28T08:55:52;8.97;;;5.10;;
9657;SDS011;4867;48.112;11.622;2023-05-28T08:58:22;8.57;;;5.00;;
9657;SDS011;4867;48.112;11.622;2023-05-28T09:00:50;7.40;;;4.70;;
9657;SDS011;4867;48.112;11.622;2023-05-28T09:03:36;10.50;;;5.00;;
9657;SDS011;4867;48.112;11.622;2023-05-28T09:06:19;7.87;;;4.90;;
9657;SDS011;4867;48.112;11.622;2023-05-28T09:08:48;9.77;;;5.40;;
9657;SDS011;4867;48.112;11.622;2023-05-28T09:11:31;9.80;;;5.23;;
9657;SDS011;4867;48.112;11.622;2023-05-28T09:13:58;9.63;;;5.47;;
9657;SDS011;4867;48.112;11.622;2023-05-28T09:16:34;7.93;;;5.23;;
9657;SDS011;4867;48.112;11.622;2023-05-28T09:19:07;10.43;;;4.90;;
9657;SDS011;4867;48.112;11.622;2023-05-28T09:21:35;7.53;;;4.97;;
9657;SDS011;4867;48.112;11.622;2023-05-28T09:24:13;8.47;;;5.03;;
9657;SDS011;4867;48.112;11.622;2023-05-28T09:26:59;7.07;;;5.10;;
9657;SDS011;4867;48.112;11.622;2023-05-28T09:29:32;8.10;;;4.93;;
9657;SDS011;4867;48.112;11.622;2023-05-28T09:32:00;8.93;;;5.27;;
9657;SDS011;4867;48.112;11.622;2023-05-28T09:34:28;8.40;;;4.87;;
9657;SDS011;4867;48.112;11.622;2023-05-28T09:37:03;10.40;;;5.00;;
9657;SDS011;4867;48.112;11.622;2023-05-28T09:53:04;6.80;;;4.70;;
9657;SDS011;4867;48.112;11.622;2023-05-28T09:55:34;8.40;;;5.00;;
9657;SDS011;4867;48.112;11.622;2023-05-28T09:58:03;7.17;;;5.00;;
9657;SDS011;4867;48.112;11.622;2023-05-28T10:00:35;10.30;;;4.87;;
9657;SDS011;4867;48.112;11.622;2023-05-28T10:05:39;8.57;;;4.57;;
9657;SDS011;4867;48.112;11.622;2023-05-28T10:08:13;9.43;;;4.97;;
9657;SDS011;4867;48.112;11.622;2023-05-28T10:10:44;9.17;;;5.30;;
9657;SDS011;4867;48.112;11.622;2023-05-28T10:13:14;8.20;;;5.00;;
9657;SDS011;4867;48.112;11.622;2023-05-28T10:15:42;10.07;;;5.10;;
9657;SDS011;4867;48.112;11.622;2023-05-28T10:18:10;7.57;;;4.87;;
9657;SDS011;4867;48.112;11.622;2023-05-28T10:20:41;9.80;;;5.57;;
9657;SDS011;4867;48.112;11.622;2023-05-28T10:23:09;6.50;;;5.03;;
9657;SDS011;4867;48.112;11.622;2023-05-28T10:25:37;11.43;;;5.90;;
9657;SDS011;4867;48.112;11.622;2023-05-28T10:28:05;7.50;;;4.70;;
9657;SDS011;4867;48.112;11.622;2023-05-28T10:30:33;8.97;;;5.33;;
9657;SDS011;4867;48.112;11.622;2023-05-28T10:33:05;11.27;;;4.63;;
9657;SDS011;4867;48.112;11.622;2023-05-28T10:35:49;7.57;;;4.90;;
9657;SDS011;4867;48.112;11.622;2023-05-28T10:38:17;8.33;;;4.80;;
9657;SDS011;4867;48.112;11.622;2023-05-28T10:40:45;7.90;;;5.00;;
9657;SDS011;4867;48.112;11.622;2023-05-28T10:46:15;7.07;;;5.50;;
9657;SDS011;4867;48.112;11.622;2023-05-28T10:51:44;8.57;;;4.80;;
9657;SDS011;4867;48.112;11.622;2023-05-28T10:54:21;9.43;;;5.10;;
9657;SDS011;4867;48.112;11.622;2023-05-28T10:59:47;6.87;;;4.80;;
9657;SDS011;4867;48.112;11.622;2023-05-28T11:02:25;10.67;;;5.03;;
9657;SDS011;4867;48.112;11.622;2023-05-28T11:05:03;9.47;;;5.03;;
9657;SDS011;4867;48.112;11.622;2023-05-28T11:10:06;7.37;;;4.60;;
9657;SDS011;4867;48.112;11.622;2023-05-28T11:12:37;8.20;;;5.33;;
9657;SDS011;4867;48.112;11.622;2023-05-28T11:15:07;9.50;;;4.60;;
9657;SDS011;4867;48.112;11.622;2023-05-28T11:17:41;9.67;;;6.30;;
9657;SDS011;4867;48.112;11.622;2023-05-28T11:22:46;7.57;;;5.83;;
9657;SDS011;4867;48.112;11.622;2023-05-28T11:25:14;7.10;;;4.60;;
9657;SDS011;4867;48.112;11.622;2023-05-28T11:27:41;7.77;;;5.43;;
9657;SDS011;4867;48.112;11.622;2023-05-28T11:30:18;7.93;;;4.77;;
9657;SDS011;4867;48.112;11.622;2023-05-28T11:32:47;8.13;;;5.13;;
9657;SDS011;4867;48.112;11.622;2023-05-28T11:35:16;15.30;;;5.07;;
9657;SDS011;4867;48.112;11.622;2023-05-28T11:37:44;7.20;;;4.83;;
9657;SDS011;4867;48.112;11.622;2023-05-28T11:40:12;7.80;;;5.07;;
9657;SDS011;4867;48.112;11.622;2023-05-28T11:42:42;8.37;;;4.80;;
9657;SDS011;4867;48.112;11.622;2023-05-28T11:45:11;7.33;;;4.87;;
9657;SDS011;4867;48.112;11.622;2023-05-28T11:47:39;8.83;;;4.97;;
9657;SDS011;4867;48.112;11.622;2023-05-28T11:50:13;8.13;;;4.80;;
9657;SDS011;4867;48.112;11.622;2023-05-28T11:52:41;7.80;;;4.47;;
9657;SDS011;4867;48.112;11.622;2023-05-28T11:55:10;6.00;;;4.37;;
9657;SDS011;4867;48.112;11.622;2023-05-28T11:57:37;7.20;;;4.70;;
9657;SDS011;4867;48.112;11.622;2023-05-28T12:00:06;7.00;;;4.80;;
9657;SDS011;4867;48.112;11.622;2023-05-28T12:02:45;7.33;;;4.70;;
9657;SDS011;4867;48.112;11.622;2023-05-28T12:05:18;7.23;;;4.67;;
9657;SDS011;4867;48.112;11.622;2023-05-28T12:07:47;7.80;;;4.50;;
9657;SDS011;4867;48.112;11.622;2023-05-28T12:10:26;7.57;;;5.07;;
9657;SDS011;4867;48.112;11.622;2023-05-28T12:12:56;6.07;;;4.70;;
9657;SDS011;4867;48.112;11.622;2023-05-28T12:15:27;8.27;;;4.90;;
9657;SDS011;4867;48.112;11.622;2023-05-28T12:17:56;7.03;;;5.07;;
9657;SDS011;4867;48.112;11.622;2023-05-28T12:23:09;6.60;;;4.73;;
9657;SDS011;4867;48.112;11.622;2023-05-28T12:28:09;7.10;;;4.40;;
9657;SDS011;4867;48.112;11.622;2023-05-28T12:30:47;7.07;;;4.70;;
9657;SDS011;4867;48.112;11.622;2023-05-28T12:33:18;10.30;;;5.30;;
9657;SDS011;4867;48.112;11.622;2023-05-28T12:35:46;7.17;;;4.63;;
9657;SDS011;4867;48.112;11.622;2023-05-28T12:38:14;6.57;;;4.57;;
9657;SDS011;4867;48.112;11.622;2023-05-28T12:40:41;8.20;;;5.10;;
9657;SDS011;4867;48.112;11.622;2023-05-28T12:43:08;6.17;;;4.53;;
9657;SDS011;4867;48.112;11.622;2023-05-28T12:45:36;7.07;;;4.77;;
9657;SDS011;4867;48.112;11.622;2023-05-28T12:48:03;8.03;;;4.80;;
9657;SDS011;4867;48.112;11.622;2023-05-28T12:50:30;7.00;;;4.70;;
9657;SDS011;4867;48.112;11.622;2023-05-28T12:52:58;7.43;;;4.93;;
9657;SDS011;4867;48.112;11.622;2023-05-28T12:55:26;9.60;;;4.80;;
9657;SDS011;4867;48.112;11.622;2023-05-28T12:57:53;7.07;;;4.67;;
9657;SDS011;4867;48.112;11.622;2023-05-28T13:00:20;4.63;;;4.20;;
9657;SDS011;4867;48.112;11.622;2023-05-28T13:02:48;6.07;;;4.73;;
9657;SDS011;4867;48.112;11.622;2023-05-28T13:05:15;7.27;;;5.10;;
9657;SDS011;4867;48.112;11.622;2023-05-28T13:07:43;7.93;;;4.80;;
9657;SDS011;4867;48.112;11.622;2023-05-28T13:10:10;6.90;;;4.60;;
9657;SDS011;4867;48.112;11.622;2023-05-28T13:12:40;10.60;;;5.37;;
9657;SDS011;4867;48.112;11.622;2023-05-28T13:15:08;7.20;;;4.78;;
9657;SDS011;4867;48.112;11.622;2023-05-28T13:17:35;8.65;;;4.90;;
9657;SDS011;4867;48.112;11.622;2023-05-28T13:20:03;6.65;;;5.00;;
9657;SDS011;4867;48.112;11.622;2023-05-28T13:22:37;7.37;;;5.27;;
9657;SDS011;4867;48.112;11.622;2023-05-28T13:25:04;7.03;;;4.90;;
9657;SDS011;4867;48.112;11.622;2023-05-28T13:27:33;7.10;;;4.87;;
9657;SDS011;4867;48.112;11.622;2023-05-28T13:30:01;7.90;;;4.90;;
9657;SDS011;4867;48.112;11.622;2023-05-28T13:32:29;7.13;;;5.40;;
9657;SDS011;4867;48.112;11.622;2023-05-28T13:34:56;9.13;;;4.77;;
9657;SDS011;4867;48.112;11.622;2023-05-28T13:37:24;7.60;;;5.00;;
9657;SDS011;4867;48.112;11.622;2023-05-28T13:39:53;6.57;;;4.77;;
9657;SDS011;4867;48.112;11.622;2023-05-28T13:42:20;9.27;;;5.10;;
9657;SDS011;4867;48.112;11.622;2023-05-28T13:44:48;6.73;;;5.10;;
9657;SDS011;4867;48.112;11.622;2023-05-28T13:47:15;8.00;;;5.65;;
9657;SDS011;4867;48.112;11.622;2023-05-28T13:49:43;6.97;;;5.20;;
9657;SDS011;4867;48.112;11.622;2023-05-28T13:52:10;6.83;;;5.17;;
9657;SDS011;4867;48.112;11.622;2023-05-28T13:54:38;7.93;;;5.70;;
9657;SDS011;4867;48.112;11.622;2023-05-28T13:57:07;7.77;;;4.97;;
9657;SDS011;4867;48.112;11.622;2023-05-28T13:59:35;7.10;;;5.03;;
9657;SDS011;4867;48.112;11.622;2023-05-28T14:02:03;7.97;;;5.10;;
9657;SDS011;4867;48.112;11.622;2023-05-28T14:04:30;9.30;;;5.53;;
9657;SDS011;4867;48.112;11.622;2023-05-28T14:06:58;8.13;;;5.10;;
9657;SDS011;4867;48.112;11.622;2023-05-28T14:09:25;6.05;;;5.45;;
9657;SDS011;4867;48.112;11.622;2023-05-28T14:11:52;6.97;;;5.32;;
9657;SDS011;4867;48.112;11.622;2023-05-28T14:14:40;7.83;;;5.43;;
9657;SDS011;4867;48.112;11.622;2023-05-28T14:17:07;7.88;;;5.60;;
9657;SDS011;4867;48.112;11.622;2023-05-28T14:19:34;6.85;;;5.30;;
9657;SDS011;4867;48.112;11.622;2023-05-28T14:22:01;7.35;;;5.80;;
9657;SDS011;4867;48.112;11.622;2023-05-28T14:24:29;6.95;;;5.45;;
9657;SDS011;4867;48.112;11.622;2023-05-28T14:26:59;6.97;;;5.38;;
9657;SDS011;4867;48.112;11.622;2023-05-28T14:29:27;6.80;;;5.43;;
9657;SDS011;4867;48.112;11.622;2023-05-28T14:31:54;8.43;;;5.70;;
9657;SDS011;4867;48.112;11.622;2023-05-28T14:34:21;8.95;;;5.80;;
9657;SDS011;4867;48.112;11.622;2023-05-28T14:36:48;8.35;;;5.78;;
9657;SDS011;4867;48.112;11.622;2023-05-28T14:39:16;8.35;;;6.43;;
9657;SDS011;4867;48.112;11.622;2023-05-28T14:41:43;7.32;;;5.72;;
9657;SDS011;4867;48.112;11.622;2023-05-28T14:44:10;6.75;;;5.30;;
9657;SDS011;4867;48.112;11.622;2023-05-28T14:46:38;9.50;;;5.95;;
9657;SDS011;4867;48.112;11.622;2023-05-28T14:49:05;7.25;;;6.07;;
9657;SDS011;4867;48.112;11.622;2023-05-28T14:51:32;8.88;;;5.97;;
9657;SDS011;4867;48.112;11.622;2023-05-28T14:54:00;8.93;;;6.30;;
9657;SDS011;4867;48.112;11.622;2023-05-28T14:56:28;6.93;;;5.83;;
9657;SDS011;4867;48.112;11.622;2023-05-28T14:58:56;8.13;;;5.50;;
9657;SDS011;4867;48.112;11.622;2023-05-28T15:01:23;6.18;;;5.45;;
9657;SDS011;4867;48.112;11.622;2023-05-28T15:03:51;8.27;;;6.15;;
9657;SDS011;4867;48.112;11.622;2023-05-28T15:06:19;8.45;;;5.82;;
9657;SDS011;4867;48.112;11.622;2023-05-28T15:08:46;7.80;;;6.07;;
9657;SDS011;4867;48.112;11.622;2023-05-28T15:11:14;8.85;;;6.22;;
9657;SDS011;4867;48.112;11.622;2023-05-28T15:13:42;9.18;;;6.32;;
9657;SDS011;4867;48.112;11.622;2023-05-28T15:16:12;6.80;;;5.53;;
9657;SDS011;4867;48.112;11.622;2023-05-28T15:18:41;6.45;;;5.60;;
9657;SDS011;4867;48.112;11.622;2023-05-28T15:21:09;8.40;;;6.28;;
9657;SDS011;4867;48.112;11.622;2023-05-28T15:23:39;10.27;;;6.95;;
9657;SDS011;4867;48.112;11.622;2023-05-28T15:26:07;8.55;;;6.72;;
9657;SDS011;4867;48.112;11.622;2023-05-28T15:28:34;6.97;;;6.20;;
9657;SDS011;4867;48.112;11.622;2023-05-28T15:31:02;8.05;;;6.53;;
9657;SDS011;4867;48.112;11.622;2023-05-28T15:33:29;9.18;;;6.45;;
9657;SDS011;4867;48.112;11.622;2023-05-28T15:35:59;8.67;;;6.30;;
9657;SDS011;4867;48.112;11.622;2023-05-28T15:38:26;7.25;;;5.85;;
9657;SDS011;4867;48.112;11.622;2023-05-28T15:40:53;7.73;;;6.10;;
9657;SDS011;4867;48.112;11.622;2023-05-28T15:43:21;7.00;;;6.33;;
9657;SDS011;4867;48.112;11.622;2023-05-28T15:45:48;8.00;;;7.20;;